sensor_id;sensor_type;location;lat;lon;timestamp;temperature;humidity
30288;DHT22;17103;48.316;11.558;2024-02-15T00:02:14;15.40;43.50
30288;DHT22;17103;48.316;11.558;2024-02-15T00:04:39;15.40;43.40
30288;DHT22;17103;48.316;11.558;2024-02-15T00:07:05;15.40;43.40
30288;DHT22;17103;48.316;11.558;2024-02-15T00:09:31;15.40;43.40
30288;DHT22;17103;48.316;11.558;2024-02-15T00:11:56;15.50;43.40
30288;DHT22;17103;48.316;11.558;2024-02-15T00:14:22;15.50;43.30
30288;DHT22;17103;48.316;11.558;2024-02-15T00:16:48;15.50;43.30
30288;DHT22;17103;48.316;11.558;2024-02-15T00:19:14;15.50;43.20
30288;DHT22;17103;48.316;11.558;2024-02-15T00:21:45;15.60;43.30
30288;DHT22;17103;48.316;11.558;2024-02-15T00:24:11;15.60;43.20
30288;DHT22;17103;48.316;11.558;2024-02-15T00:26:37;15.60;43.20
30288;DHT22;17103;48.316;11.558;2024-02-15T00:29:03;15.60;43.20
30288;DHT22;17103;48.316;11.558;2024-02-15T00:31:29;15.60;43.10
30288;DHT22;17103;48.316;11.558;2024-02-15T00:33:55;15.60;43.10
30288;DHT22;17103;48.316;11.558;2024-02-15T00:36:20;15.60;43.10
30288;DHT22;17103;48.316;11.558;2024-02-15T00:38:46;16.40;43.70
30288;DHT22;17103;48.316;11.558;2024-02-15T00:41:12;15.80;43.20
30288;DHT22;17103;48.316;11.558;2024-02-15T00:43:38;15.70;43.10
30288;DHT22;17103;48.316;11.558;2024-02-15T00:46:03;15.70;43.00
30288;DHT22;17103;48.316;11.558;2024-02-15T00:48:29;15.70;42.90
30288;DHT22;17103;48.316;11.558;2024-02-15T00:50:56;15.70;42.90
30288;DHT22;17103;48.316;11.558;2024-02-15T00:53:21;15.70;42.90
30288;DHT22;17103;48.316;11.558;2024-02-15T00:55:47;15.70;42.90
30288;DHT22;17103;48.316;11.558;2024-02-15T00:58:13;15.70;42.90
30288;DHT22;17103;48.316;11.558;2024-02-15T01:00:38;15.60;42.90
30288;DHT22;17103;48.316;11.558;2024-02-15T01:03:04;15.60;42.90
30288;DHT22;17103;48.316;11.558;2024-02-15T01:05:30;15.70;43.00
30288;DHT22;17103;48.316;11.558;2024-02-15T01:07:56;15.70;43.00
30288;DHT22;17103;48.316;11.558;2024-02-15T01:10:22;15.70;43.00
30288;DHT22;17103;48.316;11.558;2024-02-15T01:12:50;15.70;42.90
30288;DHT22;17103;48.316;11.558;2024-02-15T01:15:15;15.70;42.90
30288;DHT22;17103;48.316;11.558;2024-02-15T01:17:45;15.60;42.70
30288;DHT22;17103;48.316;11.558;2024-02-15T01:20:11;15.70;42.80
30288;DHT22;17103;48.316;11.558;2024-02-15T01:22:37;15.60;42.70
30288;DHT22;17103;48.316;11.558;2024-02-15T01:25:03;15.60;42.60
30288;DHT22;17103;48.316;11.558;2024-02-15T01:27:28;15.50;42.60
30288;DHT22;17103;48.316;11.558;2024-02-15T01:29:58;16.00;43.10
30288;DHT22;17103;48.316;11.558;2024-02-15T01:32:24;15.60;42.90
30288;DHT22;17103;48.316;11.558;2024-02-15T01:34:51;15.40;42.80
30288;DHT22;17103;48.316;11.558;2024-02-15T01:37:20;15.30;42.80
30288;DHT22;17103;48.316;11.558;2024-02-15T01:39:46;15.30;42.80
30288;DHT22;17103;48.316;11.558;2024-02-15T01:42:12;15.30;42.90
30288;DHT22;17103;48.316;11.558;2024-02-15T01:44:40;15.20;42.90
30288;DHT22;17103;48.316;11.558;2024-02-15T01:47:06;15.60;43.30
30288;DHT22;17103;48.316;11.558;2024-02-15T01:49:32;15.20;43.00
30288;DHT22;17103;48.316;11.558;2024-02-15T01:51:58;15.10;43.00
30288;DHT22;17103;48.316;11.558;2024-02-15T01:54:26;15.20;43.20
30288;DHT22;17103;48.316;11.558;2024-02-15T01:56:52;15.10;43.20
30288;DHT22;17103;48.316;11.558;2024-02-15T01:59:22;15.30;43.30
30288;DHT22;17103;48.316;11.558;2024-02-15T02:01:48;15.10;43.20
30288;DHT22;17103;48.316;11.558;2024-02-15T02:04:14;15.10;43.20
30288;DHT22;17103;48.316;11.558;2024-02-15T02:06:40;15.10;43.10
30288;DHT22;17103;48.316;11.558;2024-02-15T02:09:11;15.10;43.20
30288;DHT22;17103;48.316;11.558;2024-02-15T02:11:38;15.10;43.20
30288;DHT22;17103;48.316;11.558;2024-02-15T02:14:04;15.10;43.20
30288;DHT22;17103;48.316;11.558;2024-02-15T02:16:31;15.20;43.20
30288;DHT22;17103;48.316;11.558;2024-02-15T02:18:58;15.10;43.00
30288;DHT22;17103;48.316;11.558;2024-02-15T02:21:26;15.10;42.90
30288;DHT22;17103;48.316;11.558;2024-02-15T02:23:58;15.00;42.90
30288;DHT22;17103;48.316;11.558;2024-02-15T02:26:25;15.00;42.90
30288;DHT22;17103;48.316;11.558;2024-02-15T02:28:51;14.90;42.90
30288;DHT22;17103;48.316;11.558;2024-02-15T02:31:20;14.90;43.10
30288;DHT22;17103;48.316;11.558;2024-02-15T02:33:52;15.10;43.30
30288;DHT22;17103;48.316;11.558;2024-02-15T02:36:21;14.80;43.20
30288;DHT22;17103;48.316;11.558;2024-02-15T02:38:47;14.80;43.30
30288;DHT22;17103;48.316;11.558;2024-02-15T02:41:16;14.80;43.90
30288;DHT22;17103;48.316;11.558;2024-02-15T02:43:41;14.80;43.40
30288;DHT22;17103;48.316;11.558;2024-02-15T02:46:10;14.90;43.50
30288;DHT22;17103;48.316;11.558;2024-02-15T02:48:39;14.80;43.40
30288;DHT22;17103;48.316;11.558;2024-02-15T02:51:06;14.90;43.50
30288;DHT22;17103;48.316;11.558;2024-02-15T02:53:32;14.90;43.50
30288;DHT22;17103;48.316;11.558;2024-02-15T02:55:58;14.90;43.40
30288;DHT22;17103;48.316;11.558;2024-02-15T02:58:24;15.00;43.50
30288;DHT22;17103;48.316;11.558;2024-02-15T03:00:50;15.00;43.50
30288;DHT22;17103;48.316;11.558;2024-02-15T03:03:17;15.70;44.00
30288;DHT22;17103;48.316;11.558;2024-02-15T03:05:44;15.20;43.50
30288;DHT22;17103;48.316;11.558;2024-02-15T03:08:11;15.10;43.40
30288;DHT22;17103;48.316;11.558;2024-02-15T03:10:43;15.10;43.30
30288;DHT22;17103;48.316;11.558;2024-02-15T03:13:09;15.20;43.30
30288;DHT22;17103;48.316;11.558;2024-02-15T03:15:35;15.20;43.20
30288;DHT22;17103;48.316;11.558;2024-02-15T03:18:01;15.40;43.40
30288;DHT22;17103;48.316;11.558;2024-02-15T03:20:37;15.20;43.20
30288;DHT22;17103;48.316;11.558;2024-02-15T03:23:03;16.00;43.80
30288;DHT22;17103;48.316;11.558;2024-02-15T03:25:29;15.20;43.20
30288;DHT22;17103;48.316;11.558;2024-02-15T03:27:59;15.20;43.20
30288;DHT22;17103;48.316;11.558;2024-02-15T03:30:31;15.20;43.10
30288;DHT22;17103;48.316;11.558;2024-02-15T03:32:58;15.20;43.10
30288;DHT22;17103;48.316;11.558;2024-02-15T03:35:27;15.20;43.00
30288;DHT22;17103;48.316;11.558;2024-02-15T03:37:57;15.20;43.00
30288;DHT22;17103;48.316;11.558;2024-02-15T03:40:23;15.30;43.10
30288;DHT22;17103;48.316;11.558;2024-02-15T03:42:54;15.30;43.00
30288;DHT22;17103;48.316;11.558;2024-02-15T03:45:21;15.30;43.00
30288;DHT22;17103;48.316;11.558;2024-02-15T03:47:54;15.30;43.00
30288;DHT22;17103;48.316;11.558;2024-02-15T03:50:20;15.30;43.00
30288;DHT22;17103;48.316;11.558;2024-02-15T03:52:47;15.30;43.00
30288;DHT22;17103;48.316;11.558;2024-02-15T03:55:13;15.30;42.90
30288;DHT22;17103;48.316;11.558;2024-02-15T03:57:40;15.30;43.40
30288;DHT22;17103;48.316;11.558;2024-02-15T04:00:08;15.30;43.40
30288;DHT22;17103;48.316;11.558;2024-02-15T04:02:36;15.30;42.90
30288;DHT22;17103;48.316;11.558;2024-02-15T04:05:01;15.30;42.90
30288;DHT22;17103;48.316;11.558;2024-02-15T04:07:30;15.30;42.80
30288;DHT22;17103;48.316;11.558;2024-02-15T04:09:56;15.50;43.00
30288;DHT22;17103;48.316;11.558;2024-02-15T04:12:22;15.40;42.90
30288;DHT22;17103;48.316;11.558;2024-02-15T04:14:48;15.30;42.80
30288;DHT22;17103;48.316;11.558;2024-02-15T04:17:15;15.30;42.80
30288;DHT22;17103;48.316;11.558;2024-02-15T04:19:47;15.30;42.70
30288;DHT22;17103;48.316;11.558;2024-02-15T04:22:13;15.30;42.70
30288;DHT22;17103;48.316;11.558;2024-02-15T04:24:42;15.30;42.70
30288;DHT22;17103;48.316;11.558;2024-02-15T04:27:08;15.30;42.70
30288;DHT22;17103;48.316;11.558;2024-02-15T04:29:37;15.30;42.60
30288;DHT22;17103;48.316;11.558;2024-02-15T04:32:07;15.30;42.70
30288;DHT22;17103;48.316;11.558;2024-02-15T04:34:37;15.30;42.60
30288;DHT22;17103;48.316;11.558;2024-02-15T04:37:03;15.30;42.60
30288;DHT22;17103;48.316;11.558;2024-02-15T04:39:35;15.30;42.60
30288;DHT22;17103;48.316;11.558;2024-02-15T04:42:05;15.30;42.60
30288;DHT22;17103;48.316;11.558;2024-02-15T04:44:33;15.30;42.50
30288;DHT22;17103;48.316;11.558;2024-02-15T04:47:01;15.30;42.50
30288;DHT22;17103;48.316;11.558;2024-02-15T04:49:27;15.60;42.70
30288;DHT22;17103;48.316;11.558;2024-02-15T04:51:54;15.30;42.90
30288;DHT22;17103;48.316;11.558;2024-02-15T04:54:20;15.30;42.40
30288;DHT22;17103;48.316;11.558;2024-02-15T04:56:47;15.30;42.40
30288;DHT22;17103;48.316;11.558;2024-02-15T04:59:13;15.30;42.30
30288;DHT22;17103;48.316;11.558;2024-02-15T05:01:43;15.20;42.30
30288;DHT22;17103;48.316;11.558;2024-02-15T05:04:10;15.20;42.20
30288;DHT22;17103;48.316;11.558;2024-02-15T05:06:36;15.20;42.20
30288;DHT22;17103;48.316;11.558;2024-02-15T05:09:03;15.30;42.20
30288;DHT22;17103;48.316;11.558;2024-02-15T05:11:33;15.20;42.20
30288;DHT22;17103;48.316;11.558;2024-02-15T05:14:02;15.20;42.10
30288;DHT22;17103;48.316;11.558;2024-02-15T05:16:35;16.10;42.80
30288;DHT22;17103;48.316;11.558;2024-02-15T05:19:00;15.20;42.10
30288;DHT22;17103;48.316;11.558;2024-02-15T05:21:27;15.20;42.10
30288;DHT22;17103;48.316;11.558;2024-02-15T05:23:52;15.20;42.00
30288;DHT22;17103;48.316;11.558;2024-02-15T05:26:18;15.20;42.00
30288;DHT22;17103;48.316;11.558;2024-02-15T05:28:49;15.20;42.00
30288;DHT22;17103;48.316;11.558;2024-02-15T05:31:18;15.10;41.90
30288;DHT22;17103;48.316;11.558;2024-02-15T05:33:48;15.40;42.10
30288;DHT22;17103;48.316;11.558;2024-02-15T05:36:14;15.60;42.20
30288;DHT22;17103;48.316;11.558;2024-02-15T05:38:40;15.10;42.30
30288;DHT22;17103;48.316;11.558;2024-02-15T05:41:07;15.10;41.80
30288;DHT22;17103;48.316;11.558;2024-02-15T05:43:39;15.10;41.60
30288;DHT22;17103;48.316;11.558;2024-02-15T05:46:05;15.10;41.60
30288;DHT22;17103;48.316;11.558;2024-02-15T05:48:37;15.00;41.40
30288;DHT22;17103;48.316;11.558;2024-02-15T05:51:07;15.00;41.50
30288;DHT22;17103;48.316;11.558;2024-02-15T05:53:34;14.90;41.60
30288;DHT22;17103;48.316;11.558;2024-02-15T05:56:03;14.90;41.60
30288;DHT22;17103;48.316;11.558;2024-02-15T05:58:47;14.90;41.60
30288;DHT22;17103;48.316;11.558;2024-02-15T06:01:13;14.90;41.70
30288;DHT22;17103;48.316;11.558;2024-02-15T06:03:39;14.80;41.60
30288;DHT22;17103;48.316;11.558;2024-02-15T06:06:06;14.80;41.60
30288;DHT22;17103;48.316;11.558;2024-02-15T06:08:36;14.80;42.10
30288;DHT22;17103;48.316;11.558;2024-02-15T06:11:11;14.80;41.60
30288;DHT22;17103;48.316;11.558;2024-02-15T06:13:37;14.90;41.70
30288;DHT22;17103;48.316;11.558;2024-02-15T06:16:03;14.90;41.70
30288;DHT22;17103;48.316;11.558;2024-02-15T06:18:34;14.90;41.60
30288;DHT22;17103;48.316;11.558;2024-02-15T06:21:01;14.90;41.60
30288;DHT22;17103;48.316;11.558;2024-02-15T06:23:27;14.80;41.40
30288;DHT22;17103;48.316;11.558;2024-02-15T06:25:55;15.50;41.90
30288;DHT22;17103;48.316;11.558;2024-02-15T06:28:22;15.00;41.40
30288;DHT22;17103;48.316;11.558;2024-02-15T06:31:07;14.80;40.90
30288;DHT22;17103;48.316;11.558;2024-02-15T06:33:52;14.80;40.90
30288;DHT22;17103;48.316;11.558;2024-02-15T06:36:53;14.70;40.90
30288;DHT22;17103;48.316;11.558;2024-02-15T06:39:37;14.60;40.70
30288;DHT22;17103;48.316;11.558;2024-02-15T06:42:04;14.50;40.70
30288;DHT22;17103;48.316;11.558;2024-02-15T06:44:30;14.50;40.90
30288;DHT22;17103;48.316;11.558;2024-02-15T06:46:56;14.80;41.30
30288;DHT22;17103;48.316;11.558;2024-02-15T06:49:32;14.30;41.10
30288;DHT22;17103;48.316;11.558;2024-02-15T06:51:58;14.20;41.00
30288;DHT22;17103;48.316;11.558;2024-02-15T06:54:28;14.10;41.00
30288;DHT22;17103;48.316;11.558;2024-02-15T06:56:54;14.00;41.10
30288;DHT22;17103;48.316;11.558;2024-02-15T06:59:20;13.90;41.10
30288;DHT22;17103;48.316;11.558;2024-02-15T07:01:50;13.80;41.30
30288;DHT22;17103;48.316;11.558;2024-02-15T07:04:18;13.70;41.30
30288;DHT22;17103;48.316;11.558;2024-02-15T07:06:47;13.60;41.50
30288;DHT22;17103;48.316;11.558;2024-02-15T07:09:14;13.40;42.00
30288;DHT22;17103;48.316;11.558;2024-02-15T07:11:41;13.30;41.70
30288;DHT22;17103;48.316;11.558;2024-02-15T07:14:07;13.30;41.90
30288;DHT22;17103;48.316;11.558;2024-02-15T07:16:34;13.20;42.00
30288;DHT22;17103;48.316;11.558;2024-02-15T07:19:03;13.10;42.10
30288;DHT22;17103;48.316;11.558;2024-02-15T07:21:29;13.00;42.30
30288;DHT22;17103;48.316;11.558;2024-02-15T07:23:56;13.00;42.30
30288;DHT22;17103;48.316;11.558;2024-02-15T07:26:23;12.90;42.40
30288;DHT22;17103;48.316;11.558;2024-02-15T07:28:56;13.70;43.20
30288;DHT22;17103;48.316;11.558;2024-02-15T07:31:27;12.80;42.60
30288;DHT22;17103;48.316;11.558;2024-02-15T07:33:54;12.80;42.70
30288;DHT22;17103;48.316;11.558;2024-02-15T07:36:20;12.70;42.70
30288;DHT22;17103;48.316;11.558;2024-02-15T07:38:53;12.70;42.90
30288;DHT22;17103;48.316;11.558;2024-02-15T07:41:21;12.60;42.90
30288;DHT22;17103;48.316;11.558;2024-02-15T07:43:49;12.60;42.90
30288;DHT22;17103;48.316;11.558;2024-02-15T07:46:16;12.60;43.00
30288;DHT22;17103;48.316;11.558;2024-02-15T07:48:46;12.50;43.00
30288;DHT22;17103;48.316;11.558;2024-02-15T07:51:22;12.50;43.20
30288;DHT22;17103;48.316;11.558;2024-02-15T07:53:49;12.50;43.40
30288;DHT22;17103;48.316;11.558;2024-02-15T07:56:17;12.40;43.20
30288;DHT22;17103;48.316;11.558;2024-02-15T07:58:46;12.40;43.20
30288;DHT22;17103;48.316;11.558;2024-02-15T08:01:15;12.50;43.50
30288;DHT22;17103;48.316;11.558;2024-02-15T08:03:47;13.20;44.10
30288;DHT22;17103;48.316;11.558;2024-02-15T08:06:14;12.40;43.60
30288;DHT22;17103;48.316;11.558;2024-02-15T08:08:56;12.40;43.60
30288;DHT22;17103;48.316;11.558;2024-02-15T08:11:22;12.70;44.00
30288;DHT22;17103;48.316;11.558;2024-02-15T08:13:50;12.40;43.70
30288;DHT22;17103;48.316;11.558;2024-02-15T08:16:20;12.40;43.70
30288;DHT22;17103;48.316;11.558;2024-02-15T08:18:55;12.40;43.70
30288;DHT22;17103;48.316;11.558;2024-02-15T08:21:29;12.40;43.80
30288;DHT22;17103;48.316;11.558;2024-02-15T08:23:56;12.40;43.90
30288;DHT22;17103;48.316;11.558;2024-02-15T08:26:22;12.40;43.70
30288;DHT22;17103;48.316;11.558;2024-02-15T08:28:48;12.40;43.80
30288;DHT22;17103;48.316;11.558;2024-02-15T08:31:14;12.40;43.90
30288;DHT22;17103;48.316;11.558;2024-02-15T08:33:42;12.50;43.90
30288;DHT22;17103;48.316;11.558;2024-02-15T08:36:12;12.50;44.00
30288;DHT22;17103;48.316;11.558;2024-02-15T08:38:39;12.50;43.90
30288;DHT22;17103;48.316;11.558;2024-02-15T08:41:11;12.60;44.00
30288;DHT22;17103;48.316;11.558;2024-02-15T08:43:40;12.60;44.00
30288;DHT22;17103;48.316;11.558;2024-02-15T08:46:07;13.30;44.50
30288;DHT22;17103;48.316;11.558;2024-02-15T08:48:35;13.10;44.50
30288;DHT22;17103;48.316;11.558;2024-02-15T08:51:00;12.90;44.40
30288;DHT22;17103;48.316;11.558;2024-02-15T08:53:26;12.90;44.50
30288;DHT22;17103;48.316;11.558;2024-02-15T08:55:52;13.00;44.50
30288;DHT22;17103;48.316;11.558;2024-02-15T08:58:19;13.10;44.50
30288;DHT22;17103;48.316;11.558;2024-02-15T09:00:46;13.10;45.00
30288;DHT22;17103;48.316;11.558;2024-02-15T09:03:12;13.20;45.10
30288;DHT22;17103;48.316;11.558;2024-02-15T09:05:41;13.30;44.80
30288;DHT22;17103;48.316;11.558;2024-02-15T09:08:07;13.40;44.60
30288;DHT22;17103;48.316;11.558;2024-02-15T09:10:33;14.50;45.40
30288;DHT22;17103;48.316;11.558;2024-02-15T09:12:58;13.60;44.50
30288;DHT22;17103;48.316;11.558;2024-02-15T09:15:24;13.70;44.40
30288;DHT22;17103;48.316;11.558;2024-02-15T09:17:51;14.60;45.10
30288;DHT22;17103;48.316;11.558;2024-02-15T09:20:17;13.90;44.40
30288;DHT22;17103;48.316;11.558;2024-02-15T09:22:52;14.00;44.40
30288;DHT22;17103;48.316;11.558;2024-02-15T09:25:20;14.00;44.30
30288;DHT22;17103;48.316;11.558;2024-02-15T09:27:50;14.10;44.10
30288;DHT22;17103;48.316;11.558;2024-02-15T09:30:17;14.20;44.00
30288;DHT22;17103;48.316;11.558;2024-02-15T09:32:44;14.30;43.80
30288;DHT22;17103;48.316;11.558;2024-02-15T09:35:11;14.40;43.70
30288;DHT22;17103;48.316;11.558;2024-02-15T09:37:38;14.50;44.40
30288;DHT22;17103;48.316;11.558;2024-02-15T09:40:11;14.60;43.80
30288;DHT22;17103;48.316;11.558;2024-02-15T09:42:38;14.70;43.70
30288;DHT22;17103;48.316;11.558;2024-02-15T09:45:06;15.70;44.50
30288;DHT22;17103;48.316;11.558;2024-02-15T09:47:36;14.90;43.70
30288;DHT22;17103;48.316;11.558;2024-02-15T09:50:12;15.00;43.60
30288;DHT22;17103;48.316;11.558;2024-02-15T09:52:47;15.10;43.70
30288;DHT22;17103;48.316;11.558;2024-02-15T09:55:14;14.80;43.10
30288;DHT22;17103;48.316;11.558;2024-02-15T09:57:45;15.30;43.20
30288;DHT22;17103;48.316;11.558;2024-02-15T10:00:14;15.40;43.20
30288;DHT22;17103;48.316;11.558;2024-02-15T10:02:43;15.50;43.30
30288;DHT22;17103;48.316;11.558;2024-02-15T10:05:12;15.60;42.70
30288;DHT22;17103;48.316;11.558;2024-02-15T10:07:42;15.70;43.20
30288;DHT22;17103;48.316;11.558;2024-02-15T10:10:19;16.00;43.00
30288;DHT22;17103;48.316;11.558;2024-02-15T10:12:49;15.90;42.50
30288;DHT22;17103;48.316;11.558;2024-02-15T10:15:35;15.90;42.90
30288;DHT22;17103;48.316;11.558;2024-02-15T10:18:09;16.20;43.00
30288;DHT22;17103;48.316;11.558;2024-02-15T10:20:37;16.40;43.30
30288;DHT22;17103;48.316;11.558;2024-02-15T10:23:10;16.70;43.50
30288;DHT22;17103;48.316;11.558;2024-02-15T10:25:37;16.70;43.50
30288;DHT22;17103;48.316;11.558;2024-02-15T10:30:37;16.90;43.80
30288;DHT22;17103;48.316;11.558;2024-02-15T10:33:03;17.10;43.80
30288;DHT22;17103;48.316;11.558;2024-02-15T10:35:31;17.20;43.40
30288;DHT22;17103;48.316;11.558;2024-02-15T10:38:10;18.10;44.00
30288;DHT22;17103;48.316;11.558;2024-02-15T10:40:37;17.60;43.10
30288;DHT22;17103;48.316;11.558;2024-02-15T10:43:04;18.50;43.00
30288;DHT22;17103;48.316;11.558;2024-02-15T10:45:31;17.80;42.20
30288;DHT22;17103;48.316;11.558;2024-02-15T10:47:57;17.90;42.40
30288;DHT22;17103;48.316;11.558;2024-02-15T10:50:24;18.00;42.30
30288;DHT22;17103;48.316;11.558;2024-02-15T10:52:59;18.20;42.70
30288;DHT22;17103;48.316;11.558;2024-02-15T10:55:38;18.20;42.20
30288;DHT22;17103;48.316;11.558;2024-02-15T10:58:06;19.20;43.30
30288;DHT22;17103;48.316;11.558;2024-02-15T11:00:35;18.40;42.10
30288;DHT22;17103;48.316;11.558;2024-02-15T11:03:07;18.50;42.00
30288;DHT22;17103;48.316;11.558;2024-02-15T11:05:35;18.70;42.90
30288;DHT22;17103;48.316;11.558;2024-02-15T11:08:11;18.70;42.50
30288;DHT22;17103;48.316;11.558;2024-02-15T11:10:38;18.90;42.20
30288;DHT22;17103;48.316;11.558;2024-02-15T11:13:09;19.00;42.30
30288;DHT22;17103;48.316;11.558;2024-02-15T11:15:44;19.30;42.40
30288;DHT22;17103;48.316;11.558;2024-02-15T11:18:47;19.20;42.30
30288;DHT22;17103;48.316;11.558;2024-02-15T11:21:52;19.30;41.70
30288;DHT22;17103;48.316;11.558;2024-02-15T11:24:48;19.40;40.00
30288;DHT22;17103;48.316;11.558;2024-02-15T11:27:24;19.50;41.50
30288;DHT22;17103;48.316;11.558;2024-02-15T11:29:56;19.60;41.70
30288;DHT22;17103;48.316;11.558;2024-02-15T11:32:37;19.60;42.40
30288;DHT22;17103;48.316;11.558;2024-02-15T11:35:15;19.70;41.90
30288;DHT22;17103;48.316;11.558;2024-02-15T11:40:17;20.00;42.80
30288;DHT22;17103;48.316;11.558;2024-02-15T11:42:44;20.10;43.20
30288;DHT22;17103;48.316;11.558;2024-02-15T11:45:10;20.20;42.30
30288;DHT22;17103;48.316;11.558;2024-02-15T11:47:40;20.20;42.30
30288;DHT22;17103;48.316;11.558;2024-02-15T11:50:14;20.40;42.30
30288;DHT22;17103;48.316;11.558;2024-02-15T11:52:41;20.50;42.50
30288;DHT22;17103;48.316;11.558;2024-02-15T11:55:46;20.60;42.90
30288;DHT22;17103;48.316;11.558;2024-02-15T11:58:12;20.50;42.40
30288;DHT22;17103;48.316;11.558;2024-02-15T12:00:38;20.90;42.20
30288;DHT22;17103;48.316;11.558;2024-02-15T12:03:23;21.40;42.70
30288;DHT22;17103;48.316;11.558;2024-02-15T12:06:08;21.10;42.90
30288;DHT22;17103;48.316;11.558;2024-02-15T12:08:53;21.30;43.00
30288;DHT22;17103;48.316;11.558;2024-02-15T12:11:39;21.40;42.60
30288;DHT22;17103;48.316;11.558;2024-02-15T12:14:24;21.60;42.00
30288;DHT22;17103;48.316;11.558;2024-02-15T12:17:10;21.70;42.50
30288;DHT22;17103;48.316;11.558;2024-02-15T12:19:56;21.70;42.30
30288;DHT22;17103;48.316;11.558;2024-02-15T12:22:34;22.00;41.80
30288;DHT22;17103;48.316;11.558;2024-02-15T12:25:06;22.00;41.50
30288;DHT22;17103;48.316;11.558;2024-02-15T12:27:41;22.10;42.10
30288;DHT22;17103;48.316;11.558;2024-02-15T12:30:13;22.20;41.00
30288;DHT22;17103;48.316;11.558;2024-02-15T12:32:39;22.30;40.90
30288;DHT22;17103;48.316;11.558;2024-02-15T12:35:13;22.40;41.50
30288;DHT22;17103;48.316;11.558;2024-02-15T12:37:43;22.50;40.90
30288;DHT22;17103;48.316;11.558;2024-02-15T12:40:18;22.50;41.50
30288;DHT22;17103;48.316;11.558;2024-02-15T12:42:53;22.60;40.90
30288;DHT22;17103;48.316;11.558;2024-02-15T12:45:20;22.80;41.00
30288;DHT22;17103;48.316;11.558;2024-02-15T12:47:56;22.80;41.30
30288;DHT22;17103;48.316;11.558;2024-02-15T12:50:32;22.90;39.80
30288;DHT22;17103;48.316;11.558;2024-02-15T12:52:58;22.90;39.60
30288;DHT22;17103;48.316;11.558;2024-02-15T12:55:32;23.00;40.80
30288;DHT22;17103;48.316;11.558;2024-02-15T12:58:03;23.10;40.70
30288;DHT22;17103;48.316;11.558;2024-02-15T13:00:30;23.10;40.40
30288;DHT22;17103;48.316;11.558;2024-02-15T13:03:03;23.10;40.20
30288;DHT22;17103;48.316;11.558;2024-02-15T13:05:29;23.20;39.80
30288;DHT22;17103;48.316;11.558;2024-02-15T13:07:56;23.30;40.10
30288;DHT22;17103;48.316;11.558;2024-02-15T13:10:29;23.30;40.60
30288;DHT22;17103;48.316;11.558;2024-02-15T13:12:55;23.40;40.20
30288;DHT22;17103;48.316;11.558;2024-02-15T13:15:23;23.40;39.70
30288;DHT22;17103;48.316;11.558;2024-02-15T13:18:00;23.50;40.10
30288;DHT22;17103;48.316;11.558;2024-02-15T13:20:30;23.60;39.30
30288;DHT22;17103;48.316;11.558;2024-02-15T13:22:59;23.70;39.70
30288;DHT22;17103;48.316;11.558;2024-02-15T13:25:28;23.70;39.10
30288;DHT22;17103;48.316;11.558;2024-02-15T13:27:55;23.80;39.20
30288;DHT22;17103;48.316;11.558;2024-02-15T13:30:23;23.80;39.00
30288;DHT22;17103;48.316;11.558;2024-02-15T13:32:53;23.90;38.90
30288;DHT22;17103;48.316;11.558;2024-02-15T13:35:20;23.90;39.40
30288;DHT22;17103;48.316;11.558;2024-02-15T13:37:56;23.90;39.20
30288;DHT22;17103;48.316;11.558;2024-02-15T13:40:27;24.00;38.50
30288;DHT22;17103;48.316;11.558;2024-02-15T13:42:55;24.20;39.60
30288;DHT22;17103;48.316;11.558;2024-02-15T13:47:56;24.30;39.20
30288;DHT22;17103;48.316;11.558;2024-02-15T13:50:22;24.40;39.00
30288;DHT22;17103;48.316;11.558;2024-02-15T13:52:50;24.50;38.80
30288;DHT22;17103;48.316;11.558;2024-02-15T13:55:17;24.50;38.60
30288;DHT22;17103;48.316;11.558;2024-02-15T13:57:45;24.70;38.50
30288;DHT22;17103;48.316;11.558;2024-02-15T14:00:14;24.80;38.60
30288;DHT22;17103;48.316;11.558;2024-02-15T14:02:52;24.80;38.30
30288;DHT22;17103;48.316;11.558;2024-02-15T14:05:26;24.80;38.10
30288;DHT22;17103;48.316;11.558;2024-02-15T14:07:57;24.90;37.80
30288;DHT22;17103;48.316;11.558;2024-02-15T14:10:31;25.00;39.20
30288;DHT22;17103;48.316;11.558;2024-02-15T14:12:59;25.10;37.80
30288;DHT22;17103;48.316;11.558;2024-02-15T14:15:25;25.10;37.80
30288;DHT22;17103;48.316;11.558;2024-02-15T14:17:51;25.40;37.70
30288;DHT22;17103;48.316;11.558;2024-02-15T14:20:17;25.10;37.10
30288;DHT22;17103;48.316;11.558;2024-02-15T14:22:48;25.20;37.00
30288;DHT22;17103;48.316;11.558;2024-02-15T14:25:15;25.20;36.50
30288;DHT22;17103;48.316;11.558;2024-02-15T14:27:41;25.20;36.80
30288;DHT22;17103;48.316;11.558;2024-02-15T14:30:09;25.20;36.80
30288;DHT22;17103;48.316;11.558;2024-02-15T14:32:53;25.30;36.70
30288;DHT22;17103;48.316;11.558;2024-02-15T14:35:26;25.40;37.20
30288;DHT22;17103;48.316;11.558;2024-02-15T14:37:52;25.50;36.80
30288;DHT22;17103;48.316;11.558;2024-02-15T14:40:18;25.60;37.10
30288;DHT22;17103;48.316;11.558;2024-02-15T14:42:44;25.60;36.80
30288;DHT22;17103;48.316;11.558;2024-02-15T14:45:11;25.60;36.70
30288;DHT22;17103;48.316;11.558;2024-02-15T14:47:37;25.70;36.40
30288;DHT22;17103;48.316;11.558;2024-02-15T14:50:06;25.80;36.50
30288;DHT22;17103;48.316;11.558;2024-02-15T14:52:35;25.80;36.10
30288;DHT22;17103;48.316;11.558;2024-02-15T14:55:04;25.90;35.60
30288;DHT22;17103;48.316;11.558;2024-02-15T14:57:32;25.90;35.50
30288;DHT22;17103;48.316;11.558;2024-02-15T14:59:59;26.00;35.50
30288;DHT22;17103;48.316;11.558;2024-02-15T15:02:24;26.00;35.50
30288;DHT22;17103;48.316;11.558;2024-02-15T15:04:50;26.00;35.10
30288;DHT22;17103;48.316;11.558;2024-02-15T15:07:41;26.10;35.20
30288;DHT22;17103;48.316;11.558;2024-02-15T15:10:26;26.10;35.20
30288;DHT22;17103;48.316;11.558;2024-02-15T15:13:13;26.00;35.20
30288;DHT22;17103;48.316;11.558;2024-02-15T15:15:39;26.00;35.00
30288;DHT22;17103;48.316;11.558;2024-02-15T15:18:06;25.90;35.20
30288;DHT22;17103;48.316;11.558;2024-02-15T15:20:34;26.00;35.20
30288;DHT22;17103;48.316;11.558;2024-02-15T15:23:00;26.00;35.00
30288;DHT22;17103;48.316;11.558;2024-02-15T15:25:30;26.10;35.10
30288;DHT22;17103;48.316;11.558;2024-02-15T15:27:58;25.90;35.10
30288;DHT22;17103;48.316;11.558;2024-02-15T15:30:24;25.90;34.60
30288;DHT22;17103;48.316;11.558;2024-02-15T15:32:49;25.80;34.90
30288;DHT22;17103;48.316;11.558;2024-02-15T15:35:16;25.80;34.90
30288;DHT22;17103;48.316;11.558;2024-02-15T15:37:46;25.70;34.80